Time;durP1;ratioP1;P1;durP2;ratioP2;P2;SDS_P1;SDS_P2;PMS_P1;PMS_P2;Temp;Humidity;BMP_temperature;BMP_pressure;BME280_temperature;BME280_humidity;BME280_pressure;Samples;Min_cycle;Max_cycle;Signal;HPM_P1;HPM_P2
2021/12/28 00:01:12;;;;;;;;;;;6.60;97.60;;;;;;5085336;28;19924;-69
2021/12/28 00:03:40;;;;;;;;;;;6.60;97.30;;;;;;5084284;28;19916;-69
2021/12/28 00:06:06;;;;;;;;;;;6.60;97.30;;;;;;5082742;28;19958;-69
2021/12/28 00:08:31;;;;;;;;;;;6.60;97.30;;;;;;5079629;28;20353;-69
2021/12/28 00:10:57;;;;;;;;;;;6.60;97.60;;;;;;5085354;28;20010;-69
2021/12/28 00:13:24;;;;;;;;;;;6.60;97.30;;;;;;5080450;28;20356;-69
2021/12/28 00:16:02;;;;;;;;;;;6.60;97.30;;;;;;5101997;28;19908;-69
2021/12/28 00:18:28;;;;;;;;;;;6.60;97.30;;;;;;5083526;28;19919;-69
2021/12/28 00:20:55;;;;;;;;;;;6.60;97.60;;;;;;5085424;28;19916;-69
2021/12/28 00:23:31;;;;;;;;;;;6.60;97.30;;;;;;5077105;28;19916;-69
2021/12/28 00:25:57;;;;;;;;;;;6.60;97.30;;;;;;5084739;28;20415;-69
2021/12/28 00:28:23;;;;;;;;;;;6.60;97.30;;;;;;5070376;28;19916;-69
2021/12/28 00:30:48;;;;;;;;;;;6.50;97.30;;;;;;5087666;28;20010;-69
2021/12/28 00:33:15;;;;;;;;;;;6.60;97.30;;;;;;5074889;28;19913;-69
2021/12/28 00:35:41;;;;;;;;;;;6.50;97.30;;;;;;5087547;28;19998;-69
2021/12/28 00:38:07;;;;;;;;;;;6.50;97.30;;;;;;5085528;28;19912;-69
2021/12/28 00:40:34;;;;;;;;;;;6.60;97.30;;;;;;5086688;28;19915;-69
2021/12/28 00:42:59;;;;;;;;;;;6.60;97.30;;;;;;5076924;28;19916;-69
2021/12/28 00:45:25;;;;;;;;;;;6.50;97.30;;;;;;5088398;28;19919;-69
2021/12/28 00:47:51;;;;;;;;;;;6.60;97.40;;;;;;5081736;28;19942;-69
2021/12/28 00:50:17;;;;;;;;;;;6.50;97.40;;;;;;5099264;28;19924;-69
2021/12/28 00:52:42;;;;;;;;;;;6.50;97.40;;;;;;5073303;28;20571;-70
2021/12/28 00:55:09;;;;;;;;;;;6.50;97.40;;;;;;5086742;28;19916;-69
2021/12/28 00:57:34;;;;;;;;;;;6.50;97.40;;;;;;5084180;28;19944;-69
2021/12/28 01:00:01;;;;;;;;;;;6.50;97.40;;;;;;5088170;28;19981;-69
2021/12/28 01:02:26;;;;;;;;;;;6.50;97.30;;;;;;5079228;28;20254;-69
2021/12/28 01:04:52;;;;;;;;;;;6.40;97.30;;;;;;5086439;28;19916;-69
2021/12/28 01:07:17;;;;;;;;;;;6.50;97.50;;;;;;5083667;28;20464;-69
2021/12/28 01:09:44;;;;;;;;;;;6.40;97.10;;;;;;5084814;28;20086;-69
2021/12/28 01:12:10;;;;;;;;;;;6.40;97.10;;;;;;5083375;28;19934;-69
2021/12/28 01:14:36;;;;;;;;;;;6.40;97.10;;;;;;5084436;28;19920;-69
2021/12/28 01:17:01;;;;;;;;;;;6.40;97.10;;;;;;5085359;28;19908;-69
2021/12/28 01:19:27;;;;;;;;;;;6.30;97.40;;;;;;5084060;28;20373;-69
2021/12/28 01:21:53;;;;;;;;;;;6.30;97.10;;;;;;5090760;28;20570;-69
2021/12/28 01:24:19;;;;;;;;;;;6.30;97.10;;;;;;5086623;28;19916;-69
2021/12/28 01:26:48;;;;;;;;;;;6.30;97.10;;;;;;5086645;28;19965;-69
2021/12/28 01:29:14;;;;;;;;;;;6.30;97.10;;;;;;5084849;28;20268;-69
2021/12/28 01:31:39;;;;;;;;;;;6.30;97.10;;;;;;5081076;28;19912;-69
2021/12/28 01:34:06;;;;;;;;;;;6.30;97.10;;;;;;5084276;28;20738;-69
2021/12/28 01:36:32;;;;;;;;;;;6.20;97.10;;;;;;5081601;28;20637;-69
2021/12/28 01:38:57;;;;;;;;;;;6.20;97.00;;;;;;5084188;28;19920;-69
2021/12/28 01:41:23;;;;;;;;;;;6.20;97.00;;;;;;5084277;28;19916;-69
2021/12/28 01:43:54;;;;;;;;;;;6.20;97.00;;;;;;5083732;28;20300;-69
2021/12/28 01:46:20;;;;;;;;;;;6.10;97.10;;;;;;5092387;28;19916;-69
2021/12/28 01:48:45;;;;;;;;;;;6.10;97.10;;;;;;5092371;28;20266;-69
2021/12/28 01:51:12;;;;;;;;;;;6.10;97.10;;;;;;5081122;28;19943;-69
2021/12/28 01:53:38;;;;;;;;;;;6.10;97.10;;;;;;5090492;28;19912;-69
2021/12/28 01:56:06;;;;;;;;;;;6.10;97.10;;;;;;5089511;28;19918;-69
2021/12/28 01:58:31;;;;;;;;;;;6.10;97.30;;;;;;5092203;28;19912;-69
2021/12/28 02:00:57;;;;;;;;;;;6.00;97.10;;;;;;5086874;28;19966;-69
2021/12/28 02:03:24;;;;;;;;;;;6.00;97.10;;;;;;5083161;28;19920;-69
2021/12/28 02:05:49;;;;;;;;;;;6.00;97.10;;;;;;5082399;28;20308;-69
2021/12/28 02:08:15;;;;;;;;;;;6.00;97.10;;;;;;5086774;28;19916;-69
2021/12/28 02:10:43;;;;;;;;;;;6.00;97.10;;;;;;5089625;28;19933;-69
2021/12/28 02:13:08;;;;;;;;;;;6.00;97.10;;;;;;5086202;28;19916;-69
2021/12/28 02:15:35;;;;;;;;;;;6.00;97.10;;;;;;5087556;28;19916;-69
2021/12/28 02:18:01;;;;;;;;;;;6.00;97.00;;;;;;5082017;28;19912;-69
2021/12/28 02:20:27;;;;;;;;;;;6.00;97.00;;;;;;5083809;28;19913;-69
2021/12/28 02:22:53;;;;;;;;;;;5.90;97.00;;;;;;5078216;28;20329;-69
2021/12/28 02:25:18;;;;;;;;;;;6.00;97.00;;;;;;5105691;27;19961;-69
2021/12/28 02:27:44;;;;;;;;;;;5.90;97.00;;;;;;5079418;28;19916;-69
2021/12/28 02:30:14;;;;;;;;;;;5.90;97.00;;;;;;5089219;28;19993;-69
2021/12/28 02:32:39;;;;;;;;;;;5.90;97.00;;;;;;5070674;28;19920;-69
2021/12/28 02:35:10;;;;;;;;;;;5.90;97.00;;;;;;5090595;28;19969;-69
2021/12/28 02:37:35;;;;;;;;;;;5.90;97.00;;;;;;5077112;28;19923;-69
2021/12/28 02:40:01;;;;;;;;;;;5.90;97.00;;;;;;5088673;28;19920;-69
2021/12/28 02:42:27;;;;;;;;;;;5.90;97.00;;;;;;5075372;28;20369;-69
2021/12/28 02:45:09;;;;;;;;;;;5.90;97.00;;;;;;5092248;28;20625;-69
2021/12/28 02:47:36;;;;;;;;;;;6.00;97.00;;;;;;5098018;28;19911;-69
2021/12/28 02:50:05;;;;;;;;;;;6.00;97.00;;;;;;5087842;28;20338;-69
2021/12/28 02:52:34;;;;;;;;;;;5.90;96.90;;;;;;5080747;28;19939;-69
2021/12/28 02:54:59;;;;;;;;;;;5.90;97.00;;;;;;5088572;28;19908;-69
2021/12/28 02:57:25;;;;;;;;;;;5.90;97.00;;;;;;5079170;28;20022;-69
2021/12/28 02:59:50;;;;;;;;;;;5.90;97.00;;;;;;5090143;28;19916;-69
2021/12/28 03:02:16;;;;;;;;;;;5.90;96.90;;;;;;5078809;28;19912;-69
2021/12/28 03:04:42;;;;;;;;;;;6.00;97.00;;;;;;5085885;28;20371;-69
2021/12/28 03:07:07;;;;;;;;;;;6.00;97.00;;;;;;5086210;28;19912;-69
2021/12/28 03:09:33;;;;;;;;;;;6.00;97.00;;;;;;5088029;28;19920;-69
2021/12/28 03:11:59;;;;;;;;;;;6.00;97.00;;;;;;5077289;28;20303;-69
2021/12/28 03:14:24;;;;;;;;;;;6.00;97.10;;;;;;5087934;28;20351;-69
2021/12/28 03:16:50;;;;;;;;;;;6.00;97.10;;;;;;5079406;28;20341;-69
2021/12/28 03:19:15;;;;;;;;;;;6.00;97.10;;;;;;5087682;28;19920;-69
2021/12/28 03:21:41;;;;;;;;;;;6.00;97.00;;;;;;5073743;28;19914;-69
2021/12/28 03:24:08;;;;;;;;;;;6.00;97.10;;;;;;5099495;27;19958;-69
2021/12/28 03:26:33;;;;;;;;;;;6.00;97.10;;;;;;5084664;28;19923;-69
2021/12/28 03:28:59;;;;;;;;;;;5.90;97.10;;;;;;5082644;28;19923;-69
2021/12/28 03:31:25;;;;;;;;;;;6.00;97.10;;;;;;5084061;28;19989;-69
2021/12/28 03:33:51;;;;;;;;;;;6.00;97.10;;;;;;5084673;28;20026;-69
2021/12/28 03:36:17;;;;;;;;;;;6.00;97.10;;;;;;5087064;28;19908;-69
2021/12/28 03:38:44;;;;;;;;;;;6.00;97.10;;;;;;5084332;28;19947;-69
2021/12/28 03:41:10;;;;;;;;;;;6.00;97.20;;;;;;5085214;28;20042;-69
2021/12/28 03:43:36;;;;;;;;;;;6.00;97.20;;;;;;5086043;28;19942;-69
2021/12/28 03:46:03;;;;;;;;;;;6.00;97.10;;;;;;5078963;28;19923;-69
2021/12/28 03:48:28;;;;;;;;;;;6.00;97.20;;;;;;5082323;28;19996;-69
2021/12/28 03:50:54;;;;;;;;;;;6.00;97.20;;;;;;5084024;28;20030;-69
2021/12/28 03:53:19;;;;;;;;;;;6.00;97.20;;;;;;5081892;28;20006;-69
2021/12/28 03:55:45;;;;;;;;;;;6.00;97.20;;;;;;5080534;28;19945;-69
2021/12/28 03:58:10;;;;;;;;;;;6.00;97.20;;;;;;5101900;27;19999;-69
2021/12/28 04:00:38;;;;;;;;;;;6.00;97.20;;;;;;5085105;28;19913;-69
2021/12/28 04:03:04;;;;;;;;;;;6.00;97.20;;;;;;5087520;28;19913;-69
2021/12/28 04:05:30;;;;;;;;;;;6.00;97.20;;;;;;5083450;28;21276;-69
2021/12/28 04:07:55;;;;;;;;;;;6.00;97.20;;;;;;5086702;28;19912;-69
2021/12/28 04:10:29;;;;;;;;;;;6.00;97.50;;;;;;5088165;28;20002;-69
2021/12/28 04:12:55;;;;;;;;;;;6.00;97.30;;;;;;5080166;28;19912;-69
2021/12/28 04:15:20;;;;;;;;;;;6.00;97.30;;;;;;5080371;28;19916;-69
2021/12/28 04:17:46;;;;;;;;;;;6.00;97.30;;;;;;5077091;28;19916;-69
2021/12/28 04:20:14;;;;;;;;;;;6.00;97.20;;;;;;5086860;28;19935;-69
2021/12/28 04:22:40;;;;;;;;;;;6.00;97.20;;;;;;5077546;28;20531;-69
2021/12/28 04:25:06;;;;;;;;;;;6.10;97.30;;;;;;5090014;28;19908;-69
2021/12/28 04:27:31;;;;;;;;;;;6.10;97.30;;;;;;5082482;28;20487;-69
2021/12/28 04:29:57;;;;;;;;;;;6.10;97.30;;;;;;5086748;28;19987;-69
2021/12/28 04:32:22;;;;;;;;;;;6.00;97.30;;;;;;5076743;28;19921;-69
2021/12/28 04:34:48;;;;;;;;;;;6.10;97.30;;;;;;5090244;28;19919;-69
2021/12/28 04:37:14;;;;;;;;;;;6.10;97.30;;;;;;5082674;28;19931;-69
2021/12/28 04:39:39;;;;;;;;;;;6.10;97.50;;;;;;5088047;28;20555;-69
2021/12/28 04:42:05;;;;;;;;;;;6.10;97.70;;;;;;5082964;28;19916;-69
2021/12/28 04:44:31;;;;;;;;;;;6.10;97.60;;;;;;5091384;28;20014;-69
2021/12/28 04:46:56;;;;;;;;;;;6.20;97.70;;;;;;5078741;28;19923;-69
2021/12/28 04:49:24;;;;;;;;;;;6.10;97.70;;;;;;5093431;28;20001;-69
2021/12/28 04:51:50;;;;;;;;;;;6.10;97.70;;;;;;5088913;28;19912;-69
2021/12/28 04:54:16;;;;;;;;;;;6.10;97.50;;;;;;5093416;28;19919;-69
2021/12/28 04:56:42;;;;;;;;;;;6.10;97.60;;;;;;5082790;28;19921;-69
2021/12/28 04:59:07;;;;;;;;;;;6.20;97.50;;;;;;5090870;28;19973;-69
2021/12/28 05:01:36;;;;;;;;;;;6.20;97.50;;;;;;5089423;28;19919;-69
2021/12/28 05:04:02;;;;;;;;;;;6.10;97.50;;;;;;5089782;28;19935;-69
2021/12/28 05:06:28;;;;;;;;;;;6.10;97.50;;;;;;5079838;28;20343;-69
2021/12/28 05:08:53;;;;;;;;;;;6.10;97.40;;;;;;5089610;28;19924;-69
2021/12/28 05:11:19;;;;;;;;;;;6.20;97.40;;;;;;5077404;28;19916;-69
2021/12/28 05:13:45;;;;;;;;;;;6.10;97.40;;;;;;5086587;28;20014;-69
2021/12/28 05:16:14;;;;;;;;;;;6.20;97.50;;;;;;5083703;28;19954;-69
2021/12/28 05:18:39;;;;;;;;;;;6.10;97.50;;;;;;5092112;28;19924;-69
2021/12/28 05:21:05;;;;;;;;;;;6.10;97.50;;;;;;5086700;28;23376;-69
2021/12/28 05:23:30;;;;;;;;;;;6.10;97.50;;;;;;5090702;28;20281;-69
2021/12/28 05:25:56;;;;;;;;;;;6.10;97.40;;;;;;5084696;28;19908;-69
2021/12/28 05:28:21;;;;;;;;;;;6.10;97.40;;;;;;5089008;28;19928;-69
2021/12/28 05:30:47;;;;;;;;;;;6.20;97.40;;;;;;5081435;28;19912;-69
2021/12/28 05:33:12;;;;;;;;;;;6.20;97.50;;;;;;5091209;28;19920;-69
2021/12/28 05:35:38;;;;;;;;;;;6.20;97.70;;;;;;5099539;27;19947;-69
2021/12/28 05:38:04;;;;;;;;;;;6.20;97.50;;;;;;5090931;28;20402;-69
2021/12/28 05:40:29;;;;;;;;;;;6.20;97.50;;;;;;5084272;28;19916;-69
2021/12/28 05:42:55;;;;;;;;;;;6.20;97.60;;;;;;5091028;28;19924;-69
2021/12/28 05:45:20;;;;;;;;;;;6.20;97.70;;;;;;5087315;28;20391;-69
2021/12/28 05:47:46;;;;;;;;;;;6.20;97.60;;;;;;5084828;27;19916;-69
2021/12/28 05:50:11;;;;;;;;;;;6.20;97.60;;;;;;5094248;28;20322;-69
2021/12/28 05:52:37;;;;;;;;;;;6.20;97.60;;;;;;5090562;28;20301;-69
2021/12/28 05:55:04;;;;;;;;;;;6.20;97.60;;;;;;5078995;28;19933;-69
2021/12/28 05:57:30;;;;;;;;;;;6.20;97.60;;;;;;5084831;28;19912;-69
2021/12/28 05:59:56;;;;;;;;;;;6.20;97.60;;;;;;5077968;28;19919;-69
2021/12/28 06:02:21;;;;;;;;;;;6.20;97.50;;;;;;5089190;28;19916;-69
2021/12/28 06:04:47;;;;;;;;;;;6.20;97.50;;;;;;5083523;28;19919;-68
2021/12/28 06:07:12;;;;;;;;;;;6.20;97.60;;;;;;5084533;28;20422;-69
2021/12/28 06:09:38;;;;;;;;;;;6.20;97.50;;;;;;5091339;28;19957;-69
2021/12/28 06:12:06;;;;;;;;;;;6.20;97.60;;;;;;5083073;28;19911;-69
2021/12/28 06:14:32;;;;;;;;;;;6.20;97.50;;;;;;5087420;28;19912;-69
2021/12/28 06:16:57;;;;;;;;;;;6.20;97.50;;;;;;5083354;28;19959;-69
2021/12/28 06:19:23;;;;;;;;;;;6.20;97.60;;;;;;5093575;28;19919;-69
2021/12/28 06:21:48;;;;;;;;;;;6.20;97.60;;;;;;5081569;28;19917;-69
2021/12/28 06:24:14;;;;;;;;;;;6.20;97.50;;;;;;5087089;28;19912;-69
2021/12/28 06:26:39;;;;;;;;;;;6.20;97.80;;;;;;5081931;28;19917;-69
2021/12/28 06:29:06;;;;;;;;;;;6.30;97.80;;;;;;5084627;28;20385;-69
2021/12/28 06:31:32;;;;;;;;;;;6.30;97.80;;;;;;5099525;27;20396;-69
2021/12/28 06:33:59;;;;;;;;;;;6.30;97.90;;;;;;5083247;28;19908;-69
2021/12/28 06:36:25;;;;;;;;;;;6.30;97.90;;;;;;5097313;28;19919;-69
2021/12/28 06:38:50;;;;;;;;;;;6.30;97.90;;;;;;5088357;28;19908;-69
2021/12/28 06:41:16;;;;;;;;;;;6.30;97.80;;;;;;5080740;28;19965;-69
2021/12/28 06:43:41;;;;;;;;;;;6.30;97.90;;;;;;5086858;28;19924;-69
2021/12/28 06:46:07;;;;;;;;;;;6.30;97.90;;;;;;5085708;28;19912;-69
2021/12/28 06:48:32;;;;;;;;;;;6.30;97.90;;;;;;5086427;28;20592;-69
2021/12/28 06:50:58;;;;;;;;;;;6.30;97.90;;;;;;5080134;28;19919;-69
2021/12/28 06:53:23;;;;;;;;;;;6.30;97.90;;;;;;5085700;28;19913;-69
2021/12/28 06:55:49;;;;;;;;;;;6.30;97.90;;;;;;5089009;28;19919;-69
2021/12/28 06:58:14;;;;;;;;;;;6.30;97.80;;;;;;5086390;28;20251;-69
2021/12/28 07:00:40;;;;;;;;;;;6.30;97.80;;;;;;5078743;28;19916;-69
2021/12/28 07:03:05;;;;;;;;;;;6.30;97.70;;;;;;5089268;28;20364;-69
2021/12/28 07:05:31;;;;;;;;;;;6.40;97.70;;;;;;5087064;28;19969;-69
2021/12/28 07:07:56;;;;;;;;;;;6.30;97.70;;;;;;5087559;28;19908;-69
2021/12/28 07:10:22;;;;;;;;;;;6.40;97.80;;;;;;5081235;28;20278;-69
2021/12/28 07:12:51;;;;;;;;;;;6.30;97.70;;;;;;5083528;28;20365;-69
2021/12/28 07:15:17;;;;;;;;;;;6.30;97.80;;;;;;5081896;28;19916;-69
2021/12/28 07:17:43;;;;;;;;;;;6.40;97.80;;;;;;5083705;28;19931;-69
2021/12/28 07:20:09;;;;;;;;;;;6.40;97.80;;;;;;5089226;28;19916;-69
2021/12/28 07:22:35;;;;;;;;;;;6.30;97.80;;;;;;5085078;28;19939;-69
2021/12/28 07:25:01;;;;;;;;;;;6.30;97.80;;;;;;5077164;28;19912;-69
2021/12/28 07:27:26;;;;;;;;;;;6.30;97.80;;;;;;5087911;28;19958;-69
2021/12/28 07:29:52;;;;;;;;;;;6.30;97.80;;;;;;5073237;28;20008;-69
2021/12/28 07:32:17;;;;;;;;;;;6.40;97.90;;;;;;5082437;28;19920;-69
2021/12/28 07:34:43;;;;;;;;;;;6.30;97.80;;;;;;5074775;28;19916;-69
2021/12/28 07:37:08;;;;;;;;;;;6.30;97.80;;;;;;5086493;28;20379;-69
2021/12/28 07:39:34;;;;;;;;;;;6.30;97.80;;;;;;5082363;28;19912;-69
2021/12/28 07:41:59;;;;;;;;;;;6.30;97.80;;;;;;5081300;28;19912;-69
2021/12/28 07:44:25;;;;;;;;;;;6.30;98.00;;;;;;5085399;28;19919;-69
2021/12/28 07:46:50;;;;;;;;;;;6.30;97.90;;;;;;5087636;28;19916;-69
2021/12/28 07:49:16;;;;;;;;;;;6.30;97.90;;;;;;5080696;28;20341;-69
2021/12/28 07:51:41;;;;;;;;;;;6.30;97.90;;;;;;5086799;28;19912;-69
2021/12/28 07:54:07;;;;;;;;;;;6.30;97.90;;;;;;5080644;28;19916;-69
2021/12/28 07:56:32;;;;;;;;;;;6.30;97.90;;;;;;5090017;28;19964;-69
2021/12/28 07:58:58;;;;;;;;;;;6.30;97.90;;;;;;5078687;28;19919;-69
2021/12/28 08:01:23;;;;;;;;;;;6.30;97.90;;;;;;5078229;28;19926;-69
2021/12/28 08:03:49;;;;;;;;;;;6.30;98.00;;;;;;5087968;28;19908;-69
2021/12/28 08:06:14;;;;;;;;;;;6.30;98.00;;;;;;5080553;28;19961;-69
2021/12/28 08:08:40;;;;;;;;;;;6.30;97.90;;;;;;5083774;28;20468;-69
2021/12/28 08:11:05;;;;;;;;;;;6.30;97.90;;;;;;5090696;28;19919;-69
2021/12/28 08:13:31;;;;;;;;;;;6.30;97.80;;;;;;5072521;28;19975;-69
2021/12/28 08:15:56;;;;;;;;;;;6.30;97.80;;;;;;5083105;28;19920;-69
2021/12/28 08:18:22;;;;;;;;;;;6.30;97.80;;;;;;5081785;28;19916;-69
2021/12/28 08:20:48;;;;;;;;;;;6.30;97.70;;;;;;5082152;28;20000;-69
2021/12/28 08:23:13;;;;;;;;;;;6.30;97.70;;;;;;5086152;28;19991;-69
2021/12/28 08:25:39;;;;;;;;;;;6.30;97.70;;;;;;5084324;28;19912;-69
2021/12/28 08:28:06;;;;;;;;;;;6.30;97.70;;;;;;5081621;28;19909;-69
2021/12/28 08:30:35;;;;;;;;;;;6.30;97.60;;;;;;5077596;28;19919;-69
2021/12/28 08:33:01;;;;;;;;;;;6.30;97.50;;;;;;5084870;28;19908;-69
2021/12/28 08:35:27;;;;;;;;;;;6.30;97.50;;;;;;5073436;28;19913;-69
2021/12/28 08:37:53;;;;;;;;;;;6.40;97.60;;;;;;5083299;28;19917;-69
2021/12/28 08:40:20;;;;;;;;;;;6.40;97.70;;;;;;5095417;28;19912;-69
2021/12/28 08:42:45;;;;;;;;;;;6.40;97.70;;;;;;5083443;28;19939;-69
2021/12/28 08:45:12;;;;;;;;;;;6.40;97.90;;;;;;5082446;28;20377;-69
2021/12/28 08:47:37;;;;;;;;;;;6.40;98.00;;;;;;5082322;28;19999;-69
2021/12/28 08:50:05;;;;;;;;;;;6.50;98.10;;;;;;5084412;28;20035;-69
2021/12/28 08:52:31;;;;;;;;;;;6.50;98.10;;;;;;5085041;28;19920;-69
2021/12/28 08:54:57;;;;;;;;;;;6.50;98.10;;;;;;5079327;28;19913;-69
2021/12/28 08:57:23;;;;;;;;;;;6.60;98.00;;;;;;5083008;28;19916;-69
2021/12/28 08:59:48;;;;;;;;;;;6.60;98.20;;;;;;5084302;28;19924;-69
2021/12/28 09:02:14;;;;;;;;;;;6.60;98.00;;;;;;5082106;28;19913;-69
2021/12/28 09:04:43;;;;;;;;;;;6.60;98.00;;;;;;5079960;28;20391;-69
2021/12/28 09:07:18;;;;;;;;;;;6.60;98.20;;;;;;5089023;28;19912;-69
2021/12/28 09:09:44;;;;;;;;;;;6.70;98.10;;;;;;5085068;28;20003;-69
2021/12/28 09:12:10;;;;;;;;;;;6.70;98.00;;;;;;5083924;28;19916;-69
2021/12/28 09:14:35;;;;;;;;;;;6.70;98.00;;;;;;5084956;28;19916;-69
2021/12/28 09:17:02;;;;;;;;;;;6.70;98.00;;;;;;5099976;28;19916;-69
2021/12/28 09:19:28;;;;;;;;;;;6.80;98.00;;;;;;5100792;28;20423;-69
2021/12/28 09:21:53;;;;;;;;;;;6.80;98.10;;;;;;5089173;28;19916;-69
2021/12/28 09:24:19;;;;;;;;;;;6.80;98.10;;;;;;5098086;28;19912;-69
2021/12/28 09:26:44;;;;;;;;;;;6.80;98.00;;;;;;5093690;28;19920;-69
2021/12/28 09:29:10;;;;;;;;;;;6.80;98.00;;;;;;5085354;28;19927;-69
2021/12/28 09:31:35;;;;;;;;;;;6.80;98.00;;;;;;5091238;28;19915;-69
2021/12/28 09:34:01;;;;;;;;;;;6.90;98.20;;;;;;5084969;28;20549;-69
2021/12/28 09:36:26;;;;;;;;;;;6.90;98.20;;;;;;5091668;28;20403;-69
2021/12/28 09:38:52;;;;;;;;;;;6.90;98.10;;;;;;5077015;28;19965;-69
2021/12/28 09:41:17;;;;;;;;;;;6.90;98.20;;;;;;5085683;28;20319;-70
2021/12/28 09:43:43;;;;;;;;;;;6.90;98.00;;;;;;5085102;28;19947;-69
2021/12/28 09:46:09;;;;;;;;;;;7.00;98.10;;;;;;5086410;28;19912;-69
2021/12/28 09:48:35;;;;;;;;;;;7.00;98.10;;;;;;5084159;28;19924;-69
2021/12/28 09:51:01;;;;;;;;;;;7.10;98.10;;;;;;5084084;28;19916;-69
2021/12/28 09:53:26;;;;;;;;;;;7.10;98.10;;;;;;5085138;28;19908;-69
2021/12/28 09:55:52;;;;;;;;;;;7.10;98.20;;;;;;5087654;28;19920;-69
2021/12/28 09:58:18;;;;;;;;;;;7.20;98.10;;;;;;5084458;28;20482;-69
2021/12/28 10:00:44;;;;;;;;;;;7.20;98.20;;;;;;5080130;28;20412;-69
2021/12/28 10:03:09;;;;;;;;;;;7.20;98.10;;;;;;5086411;28;19920;-69
2021/12/28 10:05:35;;;;;;;;;;;7.20;98.10;;;;;;5077250;28;19952;-69
2021/12/28 10:08:01;;;;;;;;;;;7.30;98.10;;;;;;5085149;28;20381;-69
2021/12/28 10:10:28;;;;;;;;;;;7.30;98.20;;;;;;5084672;28;19916;-69
2021/12/28 10:12:56;;;;;;;;;;;7.30;98.10;;;;;;5087778;28;19962;-69
2021/12/28 10:15:23;;;;;;;;;;;7.40;98.10;;;;;;5082043;28;19913;-70
2021/12/28 10:17:50;;;;;;;;;;;7.40;98.10;;;;;;5085863;28;19995;-69
2021/12/28 10:20:19;;;;;;;;;;;7.40;98.10;;;;;;5083649;28;19919;-69
2021/12/28 10:22:52;;;;;;;;;;;7.40;98.10;;;;;;5086381;28;20049;-69
2021/12/28 10:25:21;;;;;;;;;;;7.50;98.10;;;;;;5079046;28;21279;-69
2021/12/28 10:27:47;;;;;;;;;;;7.50;98.10;;;;;;5087218;28;19912;-69
2021/12/28 10:30:21;;;;;;;;;;;7.50;98.10;;;;;;5078905;28;19920;-69
2021/12/28 10:32:48;;;;;;;;;;;7.50;98.00;;;;;;5085336;28;19938;-69
2021/12/28 10:35:19;;;;;;;;;;;7.50;98.00;;;;;;5084295;28;19924;-70
2021/12/28 10:37:46;;;;;;;;;;;7.50;98.10;;;;;;5088033;28;19916;-69
2021/12/28 10:40:13;;;;;;;;;;;7.60;98.10;;;;;;5082600;28;20496;-69
2021/12/28 10:42:44;;;;;;;;;;;7.60;98.00;;;;;;5083315;28;19913;-69
2021/12/28 10:45:12;;;;;;;;;;;7.60;98.00;;;;;;5083353;28;19920;-70
2021/12/28 10:47:37;;;;;;;;;;;7.60;98.00;;;;;;5085090;28;19982;-69
2021/12/28 10:50:23;;;;;;;;;;;7.60;98.00;;;;;;5091375;28;19948;-69
2021/12/28 10:52:52;;;;;;;;;;;7.60;98.10;;;;;;5079335;28;20305;-69
2021/12/28 10:55:17;;;;;;;;;;;7.60;98.10;;;;;;5086278;28;19916;-69
2021/12/28 10:57:43;;;;;;;;;;;7.70;98.00;;;;;;5099731;27;20664;-70
2021/12/28 11:00:20;;;;;;;;;;;7.70;98.00;;;;;;5086027;28;19927;-69
2021/12/28 11:02:46;;;;;;;;;;;7.70;98.10;;;;;;5089412;28;19911;-69
2021/12/28 11:05:31;;;;;;;;;;;7.70;98.20;;;;;;5087711;28;20389;-69
2021/12/28 11:07:57;;;;;;;;;;;7.70;98.30;;;;;;5078685;28;19940;-69
2021/12/28 11:10:27;;;;;;;;;;;7.70;98.10;;;;;;5080610;28;20057;-69
2021/12/28 11:12:54;;;;;;;;;;;7.80;98.10;;;;;;5086216;28;19917;-70
2021/12/28 11:15:23;;;;;;;;;;;7.80;98.10;;;;;;5086804;28;19928;-69
2021/12/28 11:17:48;;;;;;;;;;;7.80;98.10;;;;;;5083634;28;19913;-69
2021/12/28 11:20:14;;;;;;;;;;;7.80;98.10;;;;;;5085592;28;19922;-69
2021/12/28 11:22:40;;;;;;;;;;;7.80;98.10;;;;;;5082698;28;19918;-69
2021/12/28 11:25:16;;;;;;;;;;;7.80;98.20;;;;;;5086497;28;19923;-69
2021/12/28 11:27:42;;;;;;;;;;;7.80;98.00;;;;;;5083907;28;19915;-69
2021/12/28 11:30:11;;;;;;;;;;;7.90;98.00;;;;;;5083681;28;19920;-69
2021/12/28 11:32:36;;;;;;;;;;;7.90;98.00;;;;;;5083581;28;19916;-70
2021/12/28 11:35:02;;;;;;;;;;;7.90;98.00;;;;;;5081545;28;19930;-69
2021/12/28 11:37:28;;;;;;;;;;;7.90;97.90;;;;;;5099100;28;19909;-69
2021/12/28 11:39:55;;;;;;;;;;;7.90;97.90;;;;;;5082729;28;19920;-68
2021/12/28 11:42:21;;;;;;;;;;;7.90;98.00;;;;;;5082801;28;20521;-69
2021/12/28 11:44:47;;;;;;;;;;;9.00;99.90;;;;;;5079439;28;19946;-70
2021/12/28 11:47:13;;;;;;;;;;;13.70;93.90;;;;;;5083766;28;19912;-72
2021/12/28 11:49:41;;;;;;;;;;;17.20;86.70;;;;;;5081755;28;19916;-69
2021/12/28 11:52:08;;;;;;;;;;;19.50;79.60;;;;;;5078913;28;19951;-74
2021/12/28 11:54:38;;;;;;;;;;;21.30;75.50;;;;;;5081184;28;20327;-68
2021/12/28 11:57:09;;;;;;;;;;;22.60;72.40;;;;;;5082166;28;19994;-68
2021/12/28 11:59:35;;;;;;;;;;;23.80;70.30;;;;;;5079454;28;19919;-68
2021/12/28 12:02:01;;;;;;;;;;;24.70;68.90;;;;;;5080309;28;19912;-69
2021/12/28 12:04:27;;;;;;;;;;;25.40;67.80;;;;;;5080388;28;19919;-71
2021/12/28 12:07:00;;;;;;;;;;;26.10;66.90;;;;;;5084881;28;19920;-72
2021/12/28 12:09:26;;;;;;;;;;;26.60;66.30;;;;;;5077388;28;19939;-67
2021/12/28 12:12:10;;;;;;;;;;;27.30;65.60;;;;;;5085341;28;20011;-68
2021/12/28 12:14:51;;;;;;;;;;;27.80;63.60;;;;;;5113923;27;19919;-66
2021/12/28 12:17:26;;;;;;;;;;;28.40;63.60;;;;;;5083609;28;19912;-67
2021/12/28 12:19:52;;;;;;;;;;;28.80;62.90;;;;;;5098029;28;19916;-66
2021/12/28 12:22:41;;;;;;;;;;;28.70;60.20;;;;;;5091376;28;19912;-66
2021/12/28 12:25:14;;;;;;;;;;;26.90;64.50;;;;;;5075882;28;21074;-66
2021/12/28 12:27:45;;;;;;;;;;;25.60;69.10;;;;;;5078367;28;20031;-67
2021/12/28 12:30:19;;;;;;;;;;;24.70;71.60;;;;;;5082314;28;20404;-69
2021/12/28 12:33:05;;;;;;;;;;;25.40;73.70;;;;;;5088514;28;19931;-66
2021/12/28 12:35:51;;;;;;;;;;;25.90;68.80;;;;;;5097003;28;19924;-64
2021/12/28 12:38:17;;;;;;;;;;;25.30;69.70;;;;;;5081917;28;19978;-67
2021/12/28 12:41:01;;;;;;;;;;;24.80;71.20;;;;;;5084238;28;20369;-67
2021/12/28 12:43:27;;;;;;;;;;;24.60;72.20;;;;;;5083968;28;19955;-64
2021/12/28 12:45:52;;;;;;;;;;;24.30;73.50;;;;;;5085120;28;19966;-63
2021/12/28 12:48:36;;;;;;;;;;;24.10;73.60;;;;;;5080682;28;19923;-65
2021/12/28 12:51:20;;;;;;;;;;;23.90;73.70;;;;;;5097918;28;19912;-65
2021/12/28 12:53:50;;;;;;;;;;;23.80;74.10;;;;;;5087731;28;20307;-66
2021/12/28 12:56:38;;;;;;;;;;;23.80;73.90;;;;;;5087729;28;19940;-66
2021/12/28 12:59:16;;;;;;;;;;;23.80;73.90;;;;;;5086056;28;19912;-66
2021/12/28 13:01:42;;;;;;;;;;;23.70;73.50;;;;;;5082694;28;20340;-67
2021/12/28 13:04:28;;;;;;;;;;;23.50;74.90;;;;;;5095314;28;19912;-67
2021/12/28 13:07:07;;;;;;;;;;;23.30;75.10;;;;;;5089024;28;19916;-66
2021/12/28 13:09:34;;;;;;;;;;;23.30;75.10;;;;;;5090102;28;19947;-68
2021/12/28 13:12:01;;;;;;;;;;;23.30;74.30;;;;;;5096190;28;19912;-68
2021/12/28 13:14:27;;;;;;;;;;;23.30;74.70;;;;;;5087591;28;19920;-66
2021/12/28 13:16:59;;;;;;;;;;;22.80;76.00;;;;;;5085379;28;19962;-67
2021/12/28 13:19:24;;;;;;;;;;;21.60;79.80;;;;;;5094514;28;20600;-66
2021/12/28 13:22:09;;;;;;;;;;;20.50;83.30;;;;;;5078040;28;19913;-66
2021/12/28 13:24:41;;;;;;;;;;;19.60;86.40;;;;;;5091696;28;20528;-67
2021/12/28 13:27:08;;;;;;;;;;;18.80;89.00;;;;;;5080456;28;19912;-66
2021/12/28 13:29:35;;;;;;;;;;;18.30;90.30;;;;;;5086971;28;19924;-66
2021/12/28 13:32:12;;;;;;;;;;;17.90;90.80;;;;;;5086646;28;19919;-66
2021/12/28 13:34:56;;;;;;;;;;;17.50;91.80;;;;;;5082332;28;20033;-69
2021/12/28 13:37:33;;;;;;;;;;;17.10;92.50;;;;;;5083639;28;19912;-67
2021/12/28 13:40:00;;;;;;;;;;;16.80;93.00;;;;;;5090671;28;19912;-67
2021/12/28 13:42:26;;;;;;;;;;;16.50;93.20;;;;;;5079728;28;19951;-67
2021/12/28 13:44:51;;;;;;;;;;;16.20;93.50;;;;;;5087446;28;19919;-67
2021/12/28 13:47:19;;;;;;;;;;;16.00;93.90;;;;;;5080016;28;19916;-67
2021/12/28 13:50:04;;;;;;;;;;;15.70;94.10;;;;;;5085366;28;19931;-67
2021/12/28 13:52:59;;;;;;;;;;;15.50;93.70;;;;;;5083037;28;19916;-67
2021/12/28 13:55:27;;;;;;;;;;;15.30;93.80;;;;;;5084319;28;19916;-67
2021/12/28 13:57:52;;;;;;;;;;;15.00;93.80;;;;;;5075236;28;20380;-67
2021/12/28 14:00:20;;;;;;;;;;;14.80;94.30;;;;;;5092147;28;19908;-69
2021/12/28 14:02:57;;;;;;;;;;;14.70;94.20;;;;;;5079617;28;19916;-70
2021/12/28 14:05:23;;;;;;;;;;;14.50;93.90;;;;;;5089327;28;19916;-69
2021/12/28 14:07:48;;;;;;;;;;;14.40;94.20;;;;;;5091537;28;19912;-69
2021/12/28 14:10:14;;;;;;;;;;;14.30;94.00;;;;;;5088873;28;19936;-69
2021/12/28 14:12:39;;;;;;;;;;;14.10;94.00;;;;;;5082530;28;19916;-69
2021/12/28 14:15:11;;;;;;;;;;;14.00;94.00;;;;;;5088134;28;19922;-69
2021/12/28 14:17:37;;;;;;;;;;;13.90;94.20;;;;;;5084410;28;19970;-69
2021/12/28 14:20:03;;;;;;;;;;;13.80;94.20;;;;;;5087891;28;19939;-69
2021/12/28 14:22:29;;;;;;;;;;;13.70;94.30;;;;;;5078212;28;19924;-69
2021/12/28 14:24:55;;;;;;;;;;;13.60;94.50;;;;;;5088118;28;19919;-69
2021/12/28 14:27:30;;;;;;;;;;;13.50;94.30;;;;;;5086275;28;19919;-69
2021/12/28 14:30:13;;;;;;;;;;;13.40;94.50;;;;;;5084026;28;20455;-69